Time;durP1;ratioP1;P1;durP2;ratioP2;P2;SDS_P1;SDS_P2;PMS_P1;PMS_P2;Temp;Humidity;BMP_temperature;BMP_pressure;BME280_temperature;BME280_humidity;BME280_pressure;Samples;Min_cycle;Max_cycle;Signal;HPM_P1;HPM_P2
2023/01/03 00:00:09;;;;;;;;;;;7.90;99.90;;;;;;5075846;28;19955;-73
2023/01/03 00:02:34;;;;;;;;;;;7.90;99.90;;;;;;5076067;28;19913;-73
2023/01/03 00:05:00;;;;;;;;;;;7.90;99.90;;;;;;5075855;28;19919;-73
2023/01/03 00:07:35;;;;;;;;;;;7.90;99.90;;;;;;5075120;28;19970;-74
2023/01/03 00:10:02;;;;;;;;;;;7.90;99.90;;;;;;5072977;28;19966;-77
2023/01/03 00:12:28;;;;;;;;;;;8.00;99.90;;;;;;5074158;28;19921;-73
2023/01/03 00:14:54;;;;;;;;;;;8.10;99.90;;;;;;5075469;28;19923;-75
2023/01/03 00:17:20;;;;;;;;;;;8.00;99.90;;;;;;5068346;28;19921;-81
2023/01/03 00:19:46;;;;;;;;;;;8.00;99.90;;;;;;5073499;28;19916;-76
2023/01/03 00:22:13;;;;;;;;;;;8.00;99.90;;;;;;5060127;28;19920;-78
2023/01/03 00:24:38;;;;;;;;;;;8.10;99.90;;;;;;5075378;28;20248;-76
2023/01/03 00:27:04;;;;;;;;;;;8.10;99.90;;;;;;5075428;28;19918;-77
2023/01/03 00:29:30;;;;;;;;;;;8.10;99.90;;;;;;5075959;28;20356;-80
2023/01/03 00:31:56;;;;;;;;;;;8.20;99.90;;;;;;5074733;28;19928;-78
2023/01/03 00:34:21;;;;;;;;;;;8.20;99.90;;;;;;5074143;28;19912;-77
2023/01/03 00:36:47;;;;;;;;;;;8.20;99.90;;;;;;5072431;28;19927;-76
2023/01/03 00:39:12;;;;;;;;;;;8.20;99.90;;;;;;5070822;28;19923;-80
2023/01/03 00:41:38;;;;;;;;;;;8.20;99.90;;;;;;5079824;28;19973;-74
2023/01/03 00:44:04;;;;;;;;;;;8.20;99.90;;;;;;5075762;28;19920;-80
2023/01/03 00:46:29;;;;;;;;;;;8.20;99.90;;;;;;5075043;28;19920;-80
2023/01/03 00:48:55;;;;;;;;;;;8.20;99.90;;;;;;5075534;28;19908;-80
2023/01/03 00:51:22;;;;;;;;;;;8.10;99.90;;;;;;5075434;28;19959;-82
2023/01/03 00:53:48;;;;;;;;;;;8.20;99.90;;;;;;5070497;28;19921;-81
2023/01/03 00:56:16;;;;;;;;;;;8.10;99.90;;;;;;5055238;28;19912;-80
2023/01/03 00:58:42;;;;;;;;;;;8.10;99.90;;;;;;5073788;28;20286;-80
2023/01/03 01:01:09;;;;;;;;;;;8.20;99.90;;;;;;5074658;28;19912;-81
2023/01/03 01:03:36;;;;;;;;;;;8.00;99.90;;;;;;5074925;28;20011;-81
2023/01/03 01:06:10;;;;;;;;;;;8.00;99.90;;;;;;5056959;28;19912;-79
2023/01/03 01:08:36;;;;;;;;;;;8.00;99.90;;;;;;5073162;28;19961;-81
2023/01/03 01:11:02;;;;;;;;;;;8.00;99.90;;;;;;5074783;28;20411;-78
2023/01/03 01:13:29;;;;;;;;;;;8.00;99.90;;;;;;5074638;28;19920;-78
2023/01/03 01:15:54;;;;;;;;;;;8.00;99.90;;;;;;5074372;28;19920;-76
2023/01/03 01:18:20;;;;;;;;;;;8.00;99.90;;;;;;5074528;28;19921;-76
2023/01/03 01:20:45;;;;;;;;;;;8.00;99.90;;;;;;5074149;28;19920;-76
2023/01/03 01:23:11;;;;;;;;;;;;;;;;;;5074527;28;20356;-78
2023/01/03 01:25:37;;;;;;;;;;;7.80;99.90;;;;;;5055001;28;19919;-75
2023/01/03 01:28:03;;;;;;;;;;;7.70;99.90;;;;;;5067393;28;19921;-80
2023/01/03 01:30:28;;;;;;;;;;;7.60;99.90;;;;;;5069246;28;19920;-73
2023/01/03 01:32:54;;;;;;;;;;;7.60;99.90;;;;;;5056294;28;19912;-73
2023/01/03 01:35:19;;;;;;;;;;;7.60;99.90;;;;;;5074557;28;19912;-74
2023/01/03 01:37:45;;;;;;;;;;;7.70;99.90;;;;;;5074263;28;19920;-77
2023/01/03 01:40:11;;;;;;;;;;;7.70;99.90;;;;;;5074654;28;19913;-76
2023/01/03 01:45:21;;;;;;;;;;;7.70;99.90;;;;;;5072301;28;20390;-76
2023/01/03 01:47:52;;;;;;;;;;;7.70;99.90;;;;;;5056192;28;19913;-82
2023/01/03 01:50:33;;;;;;;;;;;7.70;99.90;;;;;;5073908;28;19962;-76
2023/01/03 01:53:04;;;;;;;;;;;7.70;99.90;;;;;;5066614;28;20321;-77
2023/01/03 01:55:31;;;;;;;;;;;7.80;99.90;;;;;;5073804;28;19938;-78
2023/01/03 01:57:57;;;;;;;;;;;7.80;99.90;;;;;;5053627;28;19920;-78
2023/01/03 02:00:22;;;;;;;;;;;7.90;99.90;;;;;;5073848;28;19920;-78
2023/01/03 02:02:49;;;;;;;;;;;7.90;99.90;;;;;;5073560;28;20472;-78
2023/01/03 02:05:16;;;;;;;;;;;7.80;99.90;;;;;;5073190;28;19993;-77
2023/01/03 02:07:42;;;;;;;;;;;7.80;99.90;;;;;;5074193;28;19916;-79
2023/01/03 02:10:09;;;;;;;;;;;7.70;99.90;;;;;;5073419;28;19961;-74
2023/01/03 02:15:39;;;;;;;;;;;7.40;99.90;;;;;;5069689;28;20435;-78
2023/01/03 02:18:04;;;;;;;;;;;7.30;99.90;;;;;;5068516;28;19920;-73
2023/01/03 02:20:33;;;;;;;;;;;7.30;99.90;;;;;;5073633;28;20292;-77
2023/01/03 02:23:01;;;;;;;;;;;7.30;99.90;;;;;;5073234;28;19913;-76
2023/01/03 02:25:38;;;;;;;;;;;7.30;99.90;;;;;;5073325;28;20009;-76
2023/01/03 02:28:16;;;;;;;;;;;7.30;99.90;;;;;;5055322;28;19913;-76
2023/01/03 02:30:54;;;;;;;;;;;7.40;99.90;;;;;;5071433;28;20017;-76
2023/01/03 02:33:24;;;;;;;;;;;7.30;99.90;;;;;;5070872;28;20351;-76
2023/01/03 02:35:49;;;;;;;;;;;7.40;99.90;;;;;;5073093;28;19928;-75
2023/01/03 02:38:34;;;;;;;;;;;7.40;99.90;;;;;;5073147;28;19920;-73
2023/01/03 02:41:15;;;;;;;;;;;7.40;99.90;;;;;;5073311;28;20272;-77
2023/01/03 02:43:45;;;;;;;;;;;7.40;99.90;;;;;;5066123;28;19920;-76
2023/01/03 02:46:14;;;;;;;;;;;7.50;99.90;;;;;;5073299;28;19951;-72
2023/01/03 02:48:45;;;;;;;;;;;7.50;99.90;;;;;;5072257;28;19916;-78
2023/01/03 02:51:20;;;;;;;;;;;7.50;99.90;;;;;;5055525;28;19948;-80
2023/01/03 02:53:47;;;;;;;;;;;7.50;99.90;;;;;;5060534;28;19990;-76
2023/01/03 02:56:15;;;;;;;;;;;7.40;99.90;;;;;;5074921;28;20387;-77
2023/01/03 02:58:45;;;;;;;;;;;7.40;99.90;;;;;;5077391;28;19966;-81
2023/01/03 03:01:11;;;;;;;;;;;7.30;99.90;;;;;;5077513;28;20461;-75
2023/01/03 03:03:37;;;;;;;;;;;7.30;99.90;;;;;;5075399;28;19913;-79
2023/01/03 03:06:03;;;;;;;;;;;7.30;99.90;;;;;;5076457;28;20317;-73
2023/01/03 03:08:28;;;;;;;;;;;7.30;99.90;;;;;;5061924;28;19912;-73
2023/01/03 03:13:40;;;;;;;;;;;7.40;99.90;;;;;;5074531;28;20386;-73
2023/01/03 03:19:12;;;;;;;;;;;7.40;99.90;;;;;;5070623;28;20304;-73
2023/01/03 03:29:56;;;;;;;;;;;7.40;99.90;;;;;;5074089;28;19963;-73
2023/01/03 03:32:23;;;;;;;;;;;7.30;99.90;;;;;;5060078;28;19913;-81
2023/01/03 03:34:49;;;;;;;;;;;7.40;99.90;;;;;;5073612;28;19975;-71
2023/01/03 03:37:17;;;;;;;;;;;7.40;99.90;;;;;;5076313;28;20020;-74
2023/01/03 03:45:33;;;;;;;;;;;7.40;99.90;;;;;;5076556;28;19974;-76
2023/01/03 03:48:06;;;;;;;;;;;7.30;99.90;;;;;;5073978;28;20387;-75
2023/01/03 03:50:44;;;;;;;;;;;7.20;99.90;;;;;;5076260;28;19920;-76
2023/01/03 03:53:10;;;;;;;;;;;7.20;99.90;;;;;;5075268;28;19913;-79
2023/01/03 03:55:38;;;;;;;;;;;7.30;99.90;;;;;;5076230;28;19927;-75
2023/01/03 03:58:10;;;;;;;;;;;7.30;99.90;;;;;;5059734;28;20007;-73
2023/01/03 04:00:38;;;;;;;;;;;7.30;99.90;;;;;;5058153;28;19958;-75
2023/01/03 04:03:05;;;;;;;;;;;7.30;99.90;;;;;;5076141;28;19920;-79
2023/01/03 04:05:33;;;;;;;;;;;7.20;99.90;;;;;;5076349;28;19948;-77
2023/01/03 04:07:59;;;;;;;;;;;7.30;99.90;;;;;;5076417;28;20348;-75
2023/01/03 04:10:24;;;;;;;;;;;7.30;99.90;;;;;;5075907;28;19919;-74
2023/01/03 04:12:50;;;;;;;;;;;7.30;99.90;;;;;;5076049;28;19912;-74
2023/01/03 04:15:16;;;;;;;;;;;7.30;99.90;;;;;;5067587;28;20364;-74
2023/01/03 04:17:42;;;;;;;;;;;7.30;99.90;;;;;;5074193;28;20326;-74
2023/01/03 04:20:08;;;;;;;;;;;7.30;99.90;;;;;;5075503;28;19969;-78
2023/01/03 04:22:34;;;;;;;;;;;7.20;99.90;;;;;;5076237;28;20000;-77
2023/01/03 04:24:59;;;;;;;;;;;7.20;99.90;;;;;;5075931;28;19916;-74
2023/01/03 04:27:25;;;;;;;;;;;7.20;99.90;;;;;;5058775;28;19919;-75
2023/01/03 04:29:50;;;;;;;;;;;7.20;99.90;;;;;;5058432;28;20608;-78
2023/01/03 04:32:16;;;;;;;;;;;7.20;99.90;;;;;;5057331;28;19921;-76
2023/01/03 04:34:41;;;;;;;;;;;7.10;99.90;;;;;;5075635;28;20001;-77
2023/01/03 04:37:07;;;;;;;;;;;7.20;99.90;;;;;;5074226;28;19921;-73
2023/01/03 04:39:33;;;;;;;;;;;7.20;99.90;;;;;;5056925;28;19924;-73
2023/01/03 04:42:00;;;;;;;;;;;7.20;99.90;;;;;;5073274;28;20287;-72
2023/01/03 04:44:26;;;;;;;;;;;7.30;99.90;;;;;;5075437;28;19959;-76
2023/01/03 04:46:52;;;;;;;;;;;7.30;99.90;;;;;;5075464;28;20282;-79
2023/01/03 04:49:18;;;;;;;;;;;7.30;99.90;;;;;;5041119;28;19913;-74
2023/01/03 04:51:43;;;;;;;;;;;7.30;99.90;;;;;;5037645;28;19913;-78
2023/01/03 04:54:09;;;;;;;;;;;7.10;99.90;;;;;;5060849;28;19912;-72
2023/01/03 04:56:36;;;;;;;;;;;7.10;99.90;;;;;;5066178;28;20417;-73
2023/01/03 04:59:01;;;;;;;;;;;7.10;99.90;;;;;;5075267;28;19955;-77
2023/01/03 05:01:27;;;;;;;;;;;7.10;99.90;;;;;;5075592;28;19918;-77
2023/01/03 05:03:57;;;;;;;;;;;7.10;99.90;;;;;;5075710;28;19916;-77
2023/01/03 05:06:23;;;;;;;;;;;7.10;99.90;;;;;;5057678;28;20007;-76
2023/01/03 05:08:49;;;;;;;;;;;7.20;99.90;;;;;;5075791;28;19955;-76
2023/01/03 05:11:15;;;;;;;;;;;7.10;99.90;;;;;;5057383;28;20015;-77
2023/01/03 05:13:41;;;;;;;;;;;7.10;99.90;;;;;;5075437;28;20272;-74
2023/01/03 05:16:08;;;;;;;;;;;7.10;99.90;;;;;;5057609;28;19916;-72
2023/01/03 05:18:34;;;;;;;;;;;7.00;99.90;;;;;;5075065;28;20359;-74
2023/01/03 05:26:42;;;;;;;;;;;7.00;99.90;;;;;;5071928;28;20422;-76
2023/01/03 05:29:09;;;;;;;;;;;6.90;99.90;;;;;;5055176;28;19916;-76
2023/01/03 05:31:34;;;;;;;;;;;6.90;99.90;;;;;;5053989;28;19919;-77
2023/01/03 05:34:00;;;;;;;;;;;7.00;99.90;;;;;;5071162;28;19916;-77
2023/01/03 05:36:26;;;;;;;;;;;6.90;99.90;;;;;;5063613;28;19921;-75
2023/01/03 05:38:51;;;;;;;;;;;6.90;99.90;;;;;;5066337;28;19921;-76
2023/01/03 05:41:58;;;;;;;;;;;7.00;99.90;;;;;;5074657;28;19912;-80
2023/01/03 05:44:02;;;;;;;;;;;6.90;99.90;;;;;;5074657;28;19912;-80
2023/01/03 05:46:28;;;;;;;;;;;6.90;99.90;;;;;;5074883;28;20425;-80
2023/01/03 05:48:54;;;;;;;;;;;6.90;99.90;;;;;;5074424;28;19916;-81
2023/01/03 05:51:20;;;;;;;;;;;6.90;99.90;;;;;;5074787;28;19912;-76
2023/01/03 05:53:45;;;;;;;;;;;7.00;99.90;;;;;;5073803;28;20345;-87
2023/01/03 05:56:11;;;;;;;;;;;7.00;99.90;;;;;;5057592;28;19944;-87
2023/01/03 05:58:36;;;;;;;;;;;7.00;99.90;;;;;;5074041;28;19920;-87
2023/01/03 06:01:12;;;;;;;;;;;7.00;99.90;;;;;;5073937;28;19947;-83
2023/01/03 06:03:37;;;;;;;;;;;7.00;99.90;;;;;;5053582;28;20442;-77
2023/01/03 06:06:04;;;;;;;;;;;6.90;99.90;;;;;;5073201;28;19916;-81
2023/01/03 06:08:29;;;;;;;;;;;6.90;99.90;;;;;;5071061;28;19920;-81
2023/01/03 06:10:55;;;;;;;;;;;6.90;99.90;;;;;;5068943;28;20413;-78
2023/01/03 06:13:22;;;;;;;;;;;6.90;99.90;;;;;;5050548;28;19912;-80
2023/01/03 06:17:53;;;;;;;;;;;6.90;99.90;;;;;;5071763;28;19920;-77
2023/01/03 06:18:34;;;;;;;;;;;6.80;99.90;;;;;;5073237;28;19928;-78
2023/01/03 06:21:03;;;;;;;;;;;6.80;99.90;;;;;;5073984;28;19954;-82
2023/01/03 06:23:28;;;;;;;;;;;6.80;99.90;;;;;;5073447;28;19912;-81
2023/01/03 06:25:54;;;;;;;;;;;6.90;99.90;;;;;;5073589;28;19939;-73
2023/01/03 06:28:20;;;;;;;;;;;6.90;99.90;;;;;;5073251;28;19958;-73
2023/01/03 06:30:45;;;;;;;;;;;7.00;99.90;;;;;;5073254;28;19919;-74
2023/01/03 06:33:11;;;;;;;;;;;7.00;99.90;;;;;;5072589;28;20329;-76
2023/01/03 06:35:39;;;;;;;;;;;6.90;99.90;;;;;;5055702;28;19970;-79
2023/01/03 06:38:05;;;;;;;;;;;6.80;99.90;;;;;;5073694;28;19916;-76
2023/01/03 06:40:31;;;;;;;;;;;6.70;99.90;;;;;;5055849;28;20011;-73
2023/01/03 06:42:56;;;;;;;;;;;6.70;99.90;;;;;;5054763;28;19912;-75
2023/01/03 06:53:37;;;;;;;;;;;6.70;99.90;;;;;;5073377;28;20430;-72
2023/01/03 06:56:03;;;;;;;;;;;6.80;99.90;;;;;;5055822;28;19955;-77
2023/01/03 06:58:29;;;;;;;;;;;6.80;99.90;;;;;;5071893;28;19927;-89
2023/01/03 07:00:55;;;;;;;;;;;6.80;99.90;;;;;;5074119;28;19912;-77
2023/01/03 07:03:21;;;;;;;;;;;6.70;99.90;;;;;;5073884;28;19913;-85
2023/01/03 07:05:47;;;;;;;;;;;6.60;99.90;;;;;;5074005;28;20007;-79
2023/01/03 07:08:12;;;;;;;;;;;6.50;99.90;;;;;;5066052;28;20340;-79
2023/01/03 07:10:38;;;;;;;;;;;6.40;99.90;;;;;;5071575;28;19912;-79
2023/01/03 07:15:48;;;;;;;;;;;6.30;99.90;;;;;;5057681;28;19952;-73
2023/01/03 07:18:14;;;;;;;;;;;6.30;99.90;;;;;;5067352;28;20287;-73
2023/01/03 07:20:43;;;;;;;;;;;6.30;99.90;;;;;;5052564;28;20011;-75
2023/01/03 07:23:08;;;;;;;;;;;6.30;99.90;;;;;;5066298;28;19917;-73
2023/01/03 07:25:34;;;;;;;;;;;6.40;99.90;;;;;;5066983;28;19939;-81
2023/01/03 07:28:00;;;;;;;;;;;6.30;99.90;;;;;;5065615;28;19943;-79
2023/01/03 07:30:25;;;;;;;;;;;6.30;99.90;;;;;;5072835;28;20006;-78
2023/01/03 07:32:51;;;;;;;;;;;6.30;99.90;;;;;;5073385;28;19919;-74
2023/01/03 07:35:16;;;;;;;;;;;6.40;99.90;;;;;;5069910;28;20444;-70
2023/01/03 07:37:42;;;;;;;;;;;6.40;99.90;;;;;;5063626;28;19970;-73
2023/01/03 07:40:08;;;;;;;;;;;6.30;99.90;;;;;;5041197;28;19923;-73
2023/01/03 07:45:17;;;;;;;;;;;6.30;99.90;;;;;;5072965;28;20266;-69
2023/01/03 07:47:46;;;;;;;;;;;6.40;99.90;;;;;;5077464;28;20011;-78
2023/01/03 07:50:12;;;;;;;;;;;6.40;99.90;;;;;;5055602;28;19919;-78
2023/01/03 07:52:37;;;;;;;;;;;6.40;99.90;;;;;;5072960;28;19921;-78
2023/01/03 07:55:03;;;;;;;;;;;6.50;99.90;;;;;;5063899;28;19919;-73
2023/01/03 07:57:29;;;;;;;;;;;6.30;99.90;;;;;;5056886;28;20016;-73
2023/01/03 07:59:54;;;;;;;;;;;6.90;99.90;;;;;;5074414;28;19912;-70
2023/01/03 08:02:20;;;;;;;;;;;6.60;99.90;;;;;;5076174;28;19913;-75
2023/01/03 08:04:45;;;;;;;;;;;6.20;99.90;;;;;;5058658;28;20280;-74
2023/01/03 08:07:11;;;;;;;;;;;6.10;99.90;;;;;;5058621;28;19996;-71
2023/01/03 08:15:09;;;;;;;;;;;6.10;99.90;;;;;;5048054;28;19916;-80
2023/01/03 08:17:35;;;;;;;;;;;6.10;99.90;;;;;;5076898;28;20014;-70
2023/01/03 08:20:00;;;;;;;;;;;6.10;99.90;;;;;;5077170;28;19912;-71
2023/01/03 08:22:26;;;;;;;;;;;6.20;99.90;;;;;;5058864;28;20390;-79
2023/01/03 08:24:52;;;;;;;;;;;6.20;99.90;;;;;;5076725;28;19913;-72
2023/01/03 08:27:17;;;;;;;;;;;6.10;99.90;;;;;;5076791;28;20013;-72
2023/01/03 08:29:44;;;;;;;;;;;6.20;99.90;;;;;;5076709;28;20295;-78
2023/01/03 08:32:10;;;;;;;;;;;6.30;99.90;;;;;;5076718;28;19958;-77
2023/01/03 08:34:36;;;;;;;;;;;6.40;99.90;;;;;;5076758;28;20317;-73
2023/01/03 08:37:03;;;;;;;;;;;6.60;99.90;;;;;;5076645;28;19916;-79
2023/01/03 08:39:34;;;;;;;;;;;6.70;99.90;;;;;;5076494;28;20371;-73
2023/01/03 08:42:02;;;;;;;;;;;6.80;99.90;;;;;;5076427;28;19913;-78
2023/01/03 08:44:27;;;;;;;;;;;6.80;99.90;;;;;;5076495;28;19923;-69
2023/01/03 08:46:54;;;;;;;;;;;6.90;99.90;;;;;;5058274;28;19993;-73
2023/01/03 08:49:20;;;;;;;;;;;6.80;99.90;;;;;;5057770;28;20275;-77
2023/01/03 08:51:45;;;;;;;;;;;6.90;99.90;;;;;;5076368;28;19913;-80
2023/01/03 08:54:11;;;;;;;;;;;6.90;99.90;;;;;;5075294;28;19920;-70
2023/01/03 08:56:37;;;;;;;;;;;7.10;99.90;;;;;;5075839;28;19912;-69
2023/01/03 08:59:03;;;;;;;;;;;7.20;99.90;;;;;;5075965;28;19928;-80
2023/01/03 09:01:28;;;;;;;;;;;7.30;99.90;;;;;;5076201;28;19912;-77
2023/01/03 09:03:54;;;;;;;;;;;7.30;99.90;;;;;;5076161;28;20375;-69
2023/01/03 09:06:19;;;;;;;;;;;7.40;99.90;;;;;;5076206;28;19948;-73
2023/01/03 09:08:45;;;;;;;;;;;7.40;99.90;;;;;;5075845;28;19919;-79
2023/01/03 09:11:11;;;;;;;;;;;6.90;99.90;;;;;;5076082;28;19982;-80
2023/01/03 09:13:37;;;;;;;;;;;6.80;99.90;;;;;;5057994;28;19919;-69
2023/01/03 09:16:06;;;;;;;;;;;6.80;99.90;;;;;;5075830;28;19924;-79
2023/01/03 09:18:32;;;;;;;;;;;6.80;99.90;;;;;;5075621;28;19927;-79
2023/01/03 09:20:58;;;;;;;;;;;6.80;99.90;;;;;;5075799;28;19924;-73
2023/01/03 09:23:24;;;;;;;;;;;6.90;99.90;;;;;;5075634;28;19942;-80
2023/01/03 09:25:49;;;;;;;;;;;6.90;99.90;;;;;;5057670;28;19913;-79
2023/01/03 09:28:15;;;;;;;;;;;6.90;99.90;;;;;;5075598;28;19912;-69
2023/01/03 09:30:40;;;;;;;;;;;6.80;99.90;;;;;;5075518;28;19919;-70
2023/01/03 09:33:09;;;;;;;;;;;6.90;99.90;;;;;;5074472;28;20046;-69
2023/01/03 09:35:35;;;;;;;;;;;7.10;99.90;;;;;;5073920;28;19920;-69
2023/01/03 09:38:01;;;;;;;;;;;7.20;99.90;;;;;;5074905;28;19923;-76
2023/01/03 09:40:26;;;;;;;;;;;7.20;99.90;;;;;;5075554;28;19913;-69
2023/01/03 09:45:38;;;;;;;;;;;7.00;99.90;;;;;;5075245;28;19920;-69
2023/01/03 09:48:04;;;;;;;;;;;7.00;99.90;;;;;;5075061;28;20280;-73
2023/01/03 09:50:35;;;;;;;;;;;7.10;99.90;;;;;;5075076;28;19912;-79
2023/01/03 10:04:34;;;;;;;;;;;7.20;99.90;;;;;;5074971;28;19966;-69
2023/01/03 10:07:11;;;;;;;;;;;7.20;99.90;;;;;;5074397;28;19912;-69
2023/01/03 10:09:55;;;;;;;;;;;7.40;99.90;;;;;;5056742;28;19965;-76
2023/01/03 10:12:41;;;;;;;;;;;7.70;99.90;;;;;;5056741;28;19962;-76
2023/01/03 10:15:06;;;;;;;;;;;7.90;99.90;;;;;;5043219;28;19917;-69
2023/01/03 10:17:56;;;;;;;;;;;7.90;99.90;;;;;;5074596;28;19924;-78
2023/01/03 10:20:41;;;;;;;;;;;8.10;99.90;;;;;;5056871;28;20409;-79
2023/01/03 10:23:07;;;;;;;;;;;8.30;99.90;;;;;;5074673;28;19913;-68
2023/01/03 10:25:35;;;;;;;;;;;8.60;99.90;;;;;;5074790;28;19944;-79
2023/01/03 10:28:20;;;;;;;;;;;8.80;99.90;;;;;;5056582;28;19924;-79
2023/01/03 10:30:51;;;;;;;;;;;8.90;99.90;;;;;;5074650;28;19913;-74
2023/01/03 10:33:17;;;;;;;;;;;8.90;99.90;;;;;;5074623;28;19913;-68
2023/01/03 10:35:43;;;;;;;;;;;9.00;99.90;;;;;;5056582;28;19912;-78
2023/01/03 10:38:09;;;;;;;;;;;9.10;99.90;;;;;;5074359;28;20019;-78
2023/01/03 10:40:40;;;;;;;;;;;9.30;99.90;;;;;;5056432;28;20368;-69
2023/01/03 10:43:12;;;;;;;;;;;9.30;99.90;;;;;;5073808;28;19948;-69
2023/01/03 10:45:49;;;;;;;;;;;9.40;99.90;;;;;;5074402;28;20144;-69
2023/01/03 10:48:14;;;;;;;;;;;9.30;99.90;;;;;;5074326;28;19912;-75
2023/01/03 10:50:40;;;;;;;;;;;9.30;99.90;;;;;;5074405;28;19938;-69
2023/01/03 10:53:07;;;;;;;;;;;9.50;99.90;;;;;;5073783;28;19913;-69
2023/01/03 10:55:33;;;;;;;;;;;9.40;99.90;;;;;;5074245;28;20041;-79
2023/01/03 10:58:00;;;;;;;;;;;9.50;99.90;;;;;;5054875;28;19923;-78
2023/01/03 11:00:29;;;;;;;;;;;9.60;99.90;;;;;;5056465;28;20272;-78
2023/01/03 11:03:00;;;;;;;;;;;9.60;99.90;;;;;;5056386;28;19959;-69
2023/01/03 11:05:25;;;;;;;;;;;9.70;99.90;;;;;;5074083;28;19919;-68
2023/01/03 11:07:55;;;;;;;;;;;9.80;99.90;;;;;;5073914;28;19917;-69
2023/01/03 11:10:21;;;;;;;;;;;9.80;99.90;;;;;;5074009;28;19913;-72
2023/01/03 11:12:47;;;;;;;;;;;9.50;99.90;;;;;;5056027;28;19999;-69
2023/01/03 11:15:17;;;;;;;;;;;9.70;99.90;;;;;;5056009;28;20402;-77
2023/01/03 11:17:58;;;;;;;;;;;9.80;99.90;;;;;;5074307;28;19982;-77
2023/01/03 11:20:32;;;;;;;;;;;10.00;99.90;;;;;;5078299;28;19919;-79
2023/01/03 11:23:01;;;;;;;;;;;10.60;99.90;;;;;;5078130;28;20364;-69
2023/01/03 11:25:32;;;;;;;;;;;10.40;99.90;;;;;;5077941;28;19913;-70
2023/01/03 11:28:12;;;;;;;;;;;10.50;99.90;;;;;;5069185;28;20004;-69
2023/01/03 11:30:44;;;;;;;;;;;11.10;99.90;;;;;;5055979;28;19919;-69
2023/01/03 11:33:22;;;;;;;;;;;10.40;99.90;;;;;;5038097;28;19943;-72
2023/01/03 11:35:55;;;;;;;;;;;11.00;99.90;;;;;;5037660;28;20688;-70
2023/01/03 11:38:23;;;;;;;;;;;11.10;99.90;;;;;;5068223;28;19927;-70
2023/01/03 11:41:04;;;;;;;;;;;10.90;99.90;;;;;;5077586;28;20352;-73
2023/01/03 11:43:42;;;;;;;;;;;10.90;99.90;;;;;;5077864;28;20364;-75
2023/01/03 11:46:13;;;;;;;;;;;11.10;99.90;;;;;;5077580;28;20035;-70
2023/01/03 11:48:46;;;;;;;;;;;10.90;99.90;;;;;;5077207;28;19954;-69
2023/01/03 11:51:17;;;;;;;;;;;11.10;99.90;;;;;;5059396;28;20040;-78
2023/01/03 11:54:07;;;;;;;;;;;11.00;99.90;;;;;;5059488;28;19952;-69
2023/01/03 11:56:36;;;;;;;;;;;10.70;99.90;;;;;;5077437;28;19944;-69
2023/01/03 11:59:20;;;;;;;;;;;10.30;99.90;;;;;;5059454;28;19951;-72
2023/01/03 12:02:20;;;;;;;;;;;10.20;99.90;;;;;;5077151;28;19965;-69
2023/01/03 12:05:05;;;;;;;;;;;10.20;99.90;;;;;;5059285;28;20002;-69
2023/01/03 12:07:30;;;;;;;;;;;10.20;99.90;;;;;;5077099;28;19916;-76
2023/01/03 12:10:15;;;;;;;;;;;10.10;99.90;;;;;;5077082;28;19965;-78
2023/01/03 12:12:49;;;;;;;;;;;10.10;99.90;;;;;;5077086;28;19966;-74
2023/01/03 12:15:18;;;;;;;;;;;10.00;99.90;;;;;;5058789;28;19923;-69
2023/01/03 12:18:02;;;;;;;;;;;10.00;99.90;;;;;;5076616;28;19916;-78
2023/01/03 12:20:34;;;;;;;;;;;9.70;99.90;;;;;;5076811;28;19966;-69
2023/01/03 12:23:02;;;;;;;;;;;9.60;99.90;;;;;;5076890;28;19920;-77
2023/01/03 12:25:31;;;;;;;;;;;9.60;99.90;;;;;;5076951;28;19912;-69
2023/01/03 12:28:11;;;;;;;;;;;9.60;99.90;;;;;;5076582;28;19920;-69
2023/01/03 12:30:40;;;;;;;;;;;9.60;99.90;;;;;;5075204;28;19948;-69
2023/01/03 12:33:11;;;;;;;;;;;9.60;99.90;;;;;;5058791;28;19999;-69
2023/01/03 12:35:40;;;;;;;;;;;9.50;99.90;;;;;;5076771;28;19919;-72
2023/01/03 12:38:09;;;;;;;;;;;9.40;99.90;;;;;;5076310;28;20367;-69
2023/01/03 12:40:42;;;;;;;;;;;9.40;99.90;;;;;;5076525;28;19976;-70
2023/01/03 12:43:31;;;;;;;;;;;9.30;99.90;;;;;;5076525;28;19912;-69
2023/01/03 12:46:12;;;;;;;;;;;9.40;99.90;;;;;;5065702;28;19919;-69
2023/01/03 12:48:44;;;;;;;;;;;9.40;99.90;;;;;;5075868;28;19920;-69
2023/01/03 12:51:11;;;;;;;;;;;9.40;99.90;;;;;;5076323;28;19963;-77
2023/01/03 12:53:42;;;;;;;;;;;9.50;99.90;;;;;;5076014;28;19913;-69
2023/01/03 12:56:10;;;;;;;;;;;9.50;99.90;;;;;;5076173;28;20398;-69
2023/01/03 12:58:38;;;;;;;;;;;9.50;99.90;;;;;;5075921;28;19928;-69
2023/01/03 13:01:04;;;;;;;;;;;9.40;99.90;;;;;;5076016;28;19913;-79
2023/01/03 13:03:37;;;;;;;;;;;9.40;99.90;;;;;;5075907;28;19919;-78
2023/01/03 13:06:06;;;;;;;;;;;9.50;99.90;;;;;;5076121;28;19919;-69
2023/01/03 13:08:39;;;;;;;;;;;9.70;99.90;;;;;;5075966;28;19913;-76
2023/01/03 13:11:07;;;;;;;;;;;9.90;99.90;;;;;;5076373;28;20352;-69
2023/01/03 13:13:33;;;;;;;;;;;10.00;99.90;;;;;;5076044;28;19916;-70
2023/01/03 13:15:59;;;;;;;;;;;9.70;99.90;;;;;;5057840;28;19916;-69
2023/01/03 13:18:25;;;;;;;;;;;9.50;99.90;;;;;;5075706;28;19935;-69
2023/01/03 13:20:53;;;;;;;;;;;9.60;99.90;;;;;;5075644;28;19917;-69
2023/01/03 13:23:33;;;;;;;;;;;9.70;99.90;;;;;;5075555;28;19920;-74
2023/01/03 13:26:04;;;;;;;;;;;9.60;99.90;;;;;;5075783;28;19944;-76
2023/01/03 13:28:30;;;;;;;;;;;9.70;99.90;;;;;;5075649;28;19966;-77
2023/01/03 13:31:15;;;;;;;;;;;9.70;99.90;;;;;;5075581;28;20302;-68
2023/01/03 13:33:52;;;;;;;;;;;9.70;99.90;;;;;;5057337;28;20267;-69
2023/01/03 13:36:18;;;;;;;;;;;9.60;99.90;;;;;;5075419;28;19916;-69
2023/01/03 13:38:44;;;;;;;;;;;9.60;99.90;;;;;;5057356;28;20261;-77
2023/01/03 13:41:36;;;;;;;;;;;9.50;99.90;;;;;;5057024;28;19912;-78
2023/01/03 13:44:14;;;;;;;;;;;9.50;99.90;;;;;;5071273;28;19912;-72
2023/01/03 13:46:40;;;;;;;;;;;9.50;99.90;;;;;;5075317;28;19966;-69
2023/01/03 13:49:07;;;;;;;;;;;9.50;99.90;;;;;;5057183;28;19958;-69
2023/01/03 13:51:34;;;;;;;;;;;9.50;99.90;;;;;;5075151;28;19978;-78
2023/01/03 13:53:59;;;;;;;;;;;9.40;99.90;;;;;;5074882;28;20280;-76
2023/01/03 13:56:27;;;;;;;;;;;9.40;99.90;;;;;;5075264;28;19912;-78
2023/01/03 13:59:12;;;;;;;;;;;9.40;99.90;;;;;;5056965;28;19925;-69
2023/01/03 14:01:37;;;;;;;;;;;9.50;99.90;;;;;;5075018;28;19914;-69
2023/01/03 14:04:15;;;;;;;;;;;9.50;99.90;;;;;;5075021;28;20344;-79
2023/01/03 14:06:52;;;;;;;;;;;9.50;99.90;;;;;;5074829;28;20374;-69
2023/01/03 14:09:18;;;;;;;;;;;9.50;99.90;;;;;;5074764;28;20383;-69
2023/01/03 14:12:02;;;;;;;;;;;9.50;99.90;;;;;;5074900;28;19913;-69
2023/01/03 14:14:29;;;;;;;;;;;9.50;99.90;;;;;;5056666;28;20426;-70
2023/01/03 14:16:56;;;;;;;;;;;9.60;99.90;;;;;;5074746;28;19913;-69
2023/01/03 14:19:29;;;;;;;;;;;9.60;99.90;;;;;;5074597;28;19920;-78
2023/01/03 14:22:01;;;;;;;;;;;9.60;99.90;;;;;;5056664;28;20205;-69
2023/01/03 14:24:28;;;;;;;;;;;9.60;99.90;;;;;;5074807;28;20267;-75
2023/01/03 14:26:54;;;;;;;;;;;9.50;99.90;;;;;;5074746;28;19952;-78
2023/01/03 14:29:21;;;;;;;;;;;9.60;99.90;;;;;;5074527;28;19939;-71
2023/01/03 14:31:49;;;;;;;;;;;9.50;99.90;;;;;;5074593;28;19913;-69
2023/01/03 14:34:21;;;;;;;;;;;9.50;99.90;;;;;;5074666;28;19912;-68
2023/01/03 14:36:47;;;;;;;;;;;9.40;99.90;;;;;;5074492;28;19913;-69
2023/01/03 14:39:21;;;;;;;;;;;9.40;99.90;;;;;;5074268;28;19920;-77
2023/01/03 14:41:46;;;;;;;;;;;9.40;99.90;;;;;;5074433;28;20388;-69
2023/01/03 14:44:12;;;;;;;;;;;9.40;99.90;;;;;;5055882;28;19938;-78
2023/01/03 14:46:39;;;;;;;;;;;9.40;99.90;;;;;;5074119;28;19916;-69
2023/01/03 14:49:13;;;;;;;;;;;9.40;99.90;;;;;;5056193;28;19947;-79
2023/01/03 14:51:38;;;;;;;;;;;9.50;99.90;;;;;;5074213;28;19920;-69
2023/01/03 14:54:04;;;;;;;;;;;9.50;99.90;;;;;;5055348;28;20383;-69
2023/01/03 14:56:30;;;;;;;;;;;9.50;99.90;;;;;;5056042;28;19958;-70
2023/01/03 14:58:56;;;;;;;;;;;9.50;99.90;;;;;;5073523;28;20275;-69
2023/01/03 15:01:22;;;;;;;;;;;9.50;99.90;;;;;;5074345;28;20012;-69
2023/01/03 15:03:49;;;;;;;;;;;9.60;99.90;;;;;;5074375;28;19924;-71
2023/01/03 15:06:19;;;;;;;;;;;9.60;99.90;;;;;;5074319;28;19938;-69
2023/01/03 15:08:45;;;;;;;;;;;9.60;99.90;;;;;;5074419;28;19912;-70
2023/01/03 15:11:12;;;;;;;;;;;9.50;99.90;;;;;;5056174;28;19916;-79
2023/01/03 15:13:48;;;;;;;;;;;9.40;99.90;;;;;;5074035;28;19909;-69
2023/01/03 15:16:28;;;;;;;;;;;9.30;99.90;;;;;;5074242;28;19963;-71
2023/01/03 15:19:00;;;;;;;;;;;9.30;99.90;;;;;;5074057;28;19974;-69
2023/01/03 15:21:26;;;;;;;;;;;9.40;99.90;;;;;;5074103;28;19938;-79
2023/01/03 15:23:53;;;;;;;;;;;9.30;99.90;;;;;;5074048;28;20348;-69
2023/01/03 15:26:20;;;;;;;;;;;9.30;99.90;;;;;;5074017;28;19920;-70
2023/01/03 15:28:52;;;;;;;;;;;9.30;99.90;;;;;;5073819;28;20356;-69
2023/01/03 15:31:44;;;;;;;;;;;9.30;99.90;;;;;;5069932;28;19916;-69
2023/01/03 15:34:12;;;;;;;;;;;9.30;99.90;;;;;;5033947;28;19913;-78
2023/01/03 15:36:37;;;;;;;;;;;9.30;99.90;;;;;;5053843;28;19913;-69
2023/01/03 15:39:06;;;;;;;;;;;9.10;99.90;;;;;;5066799;28;20020;-70
2023/01/03 15:44:22;;;;;;;;;;;8.90;99.90;;;;;;5073978;28;19919;-74